Аэропорт: Усть-Каменогорск. Усть-Каменогорск

ICAO: UASK

METAR:
2018/07/16 20:00
UASK 162000Z 11002MPS 7000 FEW050 SCT210 15/14 Q1001 R30/090060 NOSIG RMK QFE726/0968
METAR:
Информация по данной станции не доступна